sensor_id;sensor_type;location;lat;lon;timestamp;P1;durP1;ratioP1;P2;durP2;ratioP2
13250;SDS011;6692;50.710;7.180;2023-07-02T00:00:54;1999.90;;;999.90;;
13250;SDS011;6692;50.710;7.180;2023-07-02T00:02:55;1999.90;;;999.90;;
13250;SDS011;6692;50.710;7.180;2023-07-02T00:04:56;1999.90;;;999.90;;
13250;SDS011;6692;50.710;7.180;2023-07-02T00:06:57;1999.90;;;999.90;;
13250;SDS011;6692;50.710;7.180;2023-07-02T00:08:58;1999.90;;;999.90;;
13250;SDS011;6692;50.710;7.180;2023-07-02T00:10:58;1999.90;;;999.90;;
13250;SDS011;6692;50.710;7.180;2023-07-02T00:13:00;1999.90;;;999.90;;
13250;SDS011;6692;50.710;7.180;2023-07-02T00:15:01;1999.90;;;999.90;;
13250;SDS011;6692;50.710;7.180;2023-07-02T00:17:02;1999.90;;;999.90;;
13250;SDS011;6692;50.710;7.180;2023-07-02T00:19:03;1999.90;;;999.90;;
13250;SDS011;6692;50.710;7.180;2023-07-02T00:21:05;1999.90;;;999.90;;
13250;SDS011;6692;50.710;7.180;2023-07-02T00:23:05;1999.90;;;999.90;;
13250;SDS011;6692;50.710;7.180;2023-07-02T00:25:06;1999.90;;;999.90;;
13250;SDS011;6692;50.710;7.180;2023-07-02T00:27:07;1999.90;;;999.90;;
13250;SDS011;6692;50.710;7.180;2023-07-02T00:29:07;1999.90;;;999.90;;
13250;SDS011;6692;50.710;7.180;2023-07-02T00:31:08;1999.90;;;999.90;;
13250;SDS011;6692;50.710;7.180;2023-07-02T00:33:09;1999.90;;;999.90;;
13250;SDS011;6692;50.710;7.180;2023-07-02T00:35:10;1999.90;;;999.90;;
13250;SDS011;6692;50.710;7.180;2023-07-02T00:37:11;1999.90;;;999.90;;
13250;SDS011;6692;50.710;7.180;2023-07-02T00:39:11;1999.90;;;999.90;;
13250;SDS011;6692;50.710;7.180;2023-07-02T00:41:12;1999.90;;;999.90;;
13250;SDS011;6692;50.710;7.180;2023-07-02T00:43:14;1999.90;;;999.90;;
13250;SDS011;6692;50.710;7.180;2023-07-02T00:45:15;1999.90;;;999.90;;
13250;SDS011;6692;50.710;7.180;2023-07-02T00:47:16;1999.90;;;999.90;;
13250;SDS011;6692;50.710;7.180;2023-07-02T00:49:17;1999.90;;;999.90;;
13250;SDS011;6692;50.710;7.180;2023-07-02T00:51:19;1999.90;;;999.90;;
13250;SDS011;6692;50.710;7.180;2023-07-02T00:53:18;1999.90;;;999.90;;
13250;SDS011;6692;50.710;7.180;2023-07-02T00:55:19;1999.90;;;999.90;;
13250;SDS011;6692;50.710;7.180;2023-07-02T00:57:20;1999.90;;;999.90;;
13250;SDS011;6692;50.710;7.180;2023-07-02T00:59:20;1999.90;;;999.90;;
13250;SDS011;6692;50.710;7.180;2023-07-02T01:01:22;1999.90;;;999.90;;
13250;SDS011;6692;50.710;7.180;2023-07-02T01:03:22;1999.90;;;999.90;;
13250;SDS011;6692;50.710;7.180;2023-07-02T01:05:22;1999.90;;;999.90;;
13250;SDS011;6692;50.710;7.180;2023-07-02T01:07:24;1999.90;;;999.90;;
13250;SDS011;6692;50.710;7.180;2023-07-02T01:09:24;1999.90;;;999.90;;
13250;SDS011;6692;50.710;7.180;2023-07-02T01:11:28;1999.90;;;999.90;;
13250;SDS011;6692;50.710;7.180;2023-07-02T01:13:28;1999.90;;;999.90;;
13250;SDS011;6692;50.710;7.180;2023-07-02T01:15:29;1999.90;;;999.90;;
13250;SDS011;6692;50.710;7.180;2023-07-02T01:17:31;1999.90;;;999.90;;
13250;SDS011;6692;50.710;7.180;2023-07-02T01:19:40;1999.90;;;999.90;;
13250;SDS011;6692;50.710;7.180;2023-07-02T01:21:42;1999.90;;;999.90;;
13250;SDS011;6692;50.710;7.180;2023-07-02T01:23:42;1999.90;;;999.90;;
13250;SDS011;6692;50.710;7.180;2023-07-02T01:25:44;1999.90;;;999.90;;
13250;SDS011;6692;50.710;7.180;2023-07-02T01:27:45;1999.90;;;999.90;;
13250;SDS011;6692;50.710;7.180;2023-07-02T01:29:45;1999.90;;;999.90;;
13250;SDS011;6692;50.710;7.180;2023-07-02T01:31:47;1999.90;;;999.90;;
13250;SDS011;6692;50.710;7.180;2023-07-02T01:33:47;1999.90;;;999.90;;
13250;SDS011;6692;50.710;7.180;2023-07-02T01:35:47;1999.90;;;999.90;;
13250;SDS011;6692;50.710;7.180;2023-07-02T01:37:48;1999.90;;;999.90;;
13250;SDS011;6692;50.710;7.180;2023-07-02T01:39:49;1999.90;;;999.90;;
13250;SDS011;6692;50.710;7.180;2023-07-02T01:41:51;1999.90;;;999.90;;
13250;SDS011;6692;50.710;7.180;2023-07-02T01:43:51;1999.90;;;999.90;;
13250;SDS011;6692;50.710;7.180;2023-07-02T01:45:51;1999.90;;;999.90;;
13250;SDS011;6692;50.710;7.180;2023-07-02T01:47:52;1999.90;;;999.90;;
13250;SDS011;6692;50.710;7.180;2023-07-02T01:49:53;1999.90;;;999.90;;
13250;SDS011;6692;50.710;7.180;2023-07-02T01:51:54;1999.90;;;999.90;;
13250;SDS011;6692;50.710;7.180;2023-07-02T01:53:54;1999.90;;;999.90;;
13250;SDS011;6692;50.710;7.180;2023-07-02T01:55:55;1999.90;;;999.90;;
13250;SDS011;6692;50.710;7.180;2023-07-02T01:57:55;1999.90;;;999.90;;
13250;SDS011;6692;50.710;7.180;2023-07-02T01:59:56;1999.90;;;999.90;;
13250;SDS011;6692;50.710;7.180;2023-07-02T02:01:57;1999.90;;;999.90;;
13250;SDS011;6692;50.710;7.180;2023-07-02T02:03:58;1999.90;;;999.90;;
13250;SDS011;6692;50.710;7.180;2023-07-02T02:05:59;1999.90;;;999.90;;
13250;SDS011;6692;50.710;7.180;2023-07-02T02:08:00;1999.90;;;999.90;;
13250;SDS011;6692;50.710;7.180;2023-07-02T02:10:00;1999.90;;;999.90;;
13250;SDS011;6692;50.710;7.180;2023-07-02T02:12:01;1999.90;;;999.90;;
13250;SDS011;6692;50.710;7.180;2023-07-02T02:14:02;1999.90;;;999.90;;
13250;SDS011;6692;50.710;7.180;2023-07-02T02:16:02;1999.90;;;999.90;;
13250;SDS011;6692;50.710;7.180;2023-07-02T02:18:03;1999.90;;;999.90;;
13250;SDS011;6692;50.710;7.180;2023-07-02T02:20:04;1999.90;;;999.90;;
13250;SDS011;6692;50.710;7.180;2023-07-02T02:22:06;1999.90;;;999.90;;
13250;SDS011;6692;50.710;7.180;2023-07-02T02:24:07;1999.90;;;999.90;;
13250;SDS011;6692;50.710;7.180;2023-07-02T02:26:08;1999.90;;;999.90;;
13250;SDS011;6692;50.710;7.180;2023-07-02T02:28:09;1999.90;;;999.90;;
13250;SDS011;6692;50.710;7.180;2023-07-02T02:30:10;1999.90;;;999.90;;
13250;SDS011;6692;50.710;7.180;2023-07-02T02:32:12;1999.90;;;999.90;;
13250;SDS011;6692;50.710;7.180;2023-07-02T02:34:13;1999.90;;;999.90;;
13250;SDS011;6692;50.710;7.180;2023-07-02T02:36:13;1999.90;;;999.90;;
13250;SDS011;6692;50.710;7.180;2023-07-02T02:38:14;1999.90;;;999.90;;
13250;SDS011;6692;50.710;7.180;2023-07-02T02:40:15;1999.90;;;999.90;;
13250;SDS011;6692;50.710;7.180;2023-07-02T02:42:16;1999.90;;;999.90;;
13250;SDS011;6692;50.710;7.180;2023-07-02T02:44:16;1999.90;;;999.90;;
13250;SDS011;6692;50.710;7.180;2023-07-02T02:46:19;1999.90;;;999.90;;
13250;SDS011;6692;50.710;7.180;2023-07-02T02:48:19;1999.90;;;999.90;;
13250;SDS011;6692;50.710;7.180;2023-07-02T02:50:20;1999.90;;;999.90;;
13250;SDS011;6692;50.710;7.180;2023-07-02T02:52:21;1999.90;;;999.90;;
13250;SDS011;6692;50.710;7.180;2023-07-02T02:54:22;1999.90;;;999.90;;
13250;SDS011;6692;50.710;7.180;2023-07-02T02:56:22;1999.90;;;999.90;;
13250;SDS011;6692;50.710;7.180;2023-07-02T02:58:23;1999.90;;;999.90;;
13250;SDS011;6692;50.710;7.180;2023-07-02T03:00:24;1999.90;;;999.90;;
13250;SDS011;6692;50.710;7.180;2023-07-02T03:02:25;1999.90;;;999.90;;
13250;SDS011;6692;50.710;7.180;2023-07-02T03:04:26;1999.90;;;999.90;;
13250;SDS011;6692;50.710;7.180;2023-07-02T03:06:26;1999.90;;;999.90;;
13250;SDS011;6692;50.710;7.180;2023-07-02T03:08:27;1999.90;;;999.90;;
13250;SDS011;6692;50.710;7.180;2023-07-02T03:10:28;1999.90;;;999.90;;
13250;SDS011;6692;50.710;7.180;2023-07-02T03:12:29;1999.90;;;999.90;;
13250;SDS011;6692;50.710;7.180;2023-07-02T03:14:30;1999.90;;;999.90;;
13250;SDS011;6692;50.710;7.180;2023-07-02T03:16:30;1999.90;;;999.90;;
13250;SDS011;6692;50.710;7.180;2023-07-02T03:18:31;1999.90;;;999.90;;
13250;SDS011;6692;50.710;7.180;2023-07-02T03:20:33;1999.90;;;999.90;;
13250;SDS011;6692;50.710;7.180;2023-07-02T03:22:33;1999.90;;;999.90;;
13250;SDS011;6692;50.710;7.180;2023-07-02T03:24:34;1999.90;;;999.90;;
13250;SDS011;6692;50.710;7.180;2023-07-02T03:26:35;1999.90;;;999.90;;
13250;SDS011;6692;50.710;7.180;2023-07-02T03:28:35;1999.90;;;999.90;;
13250;SDS011;6692;50.710;7.180;2023-07-02T03:30:36;1999.90;;;999.90;;
13250;SDS011;6692;50.710;7.180;2023-07-02T03:32:37;1999.90;;;999.90;;
13250;SDS011;6692;50.710;7.180;2023-07-02T03:34:37;1999.90;;;999.90;;
13250;SDS011;6692;50.710;7.180;2023-07-02T03:36:38;1999.90;;;999.90;;
13250;SDS011;6692;50.710;7.180;2023-07-02T03:38:39;1999.90;;;999.90;;
13250;SDS011;6692;50.710;7.180;2023-07-02T03:40:39;1999.90;;;999.90;;
13250;SDS011;6692;50.710;7.180;2023-07-02T03:42:40;1999.90;;;999.90;;
13250;SDS011;6692;50.710;7.180;2023-07-02T03:44:41;1999.90;;;999.90;;
13250;SDS011;6692;50.710;7.180;2023-07-02T03:46:41;1999.90;;;999.90;;
13250;SDS011;6692;50.710;7.180;2023-07-02T03:48:43;1999.90;;;999.90;;
13250;SDS011;6692;50.710;7.180;2023-07-02T03:50:43;1999.90;;;999.90;;
13250;SDS011;6692;50.710;7.180;2023-07-02T03:52:44;1999.90;;;999.90;;
13250;SDS011;6692;50.710;7.180;2023-07-02T03:54:45;1999.90;;;999.90;;
13250;SDS011;6692;50.710;7.180;2023-07-02T03:56:45;1999.90;;;999.90;;
13250;SDS011;6692;50.710;7.180;2023-07-02T03:58:46;1999.90;;;999.90;;
13250;SDS011;6692;50.710;7.180;2023-07-02T04:00:47;1999.90;;;999.90;;
13250;SDS011;6692;50.710;7.180;2023-07-02T04:02:48;1999.90;;;999.90;;
13250;SDS011;6692;50.710;7.180;2023-07-02T04:04:48;1999.90;;;999.90;;
13250;SDS011;6692;50.710;7.180;2023-07-02T04:06:49;1999.90;;;999.90;;
13250;SDS011;6692;50.710;7.180;2023-07-02T04:08:50;1999.90;;;999.90;;
13250;SDS011;6692;50.710;7.180;2023-07-02T04:10:50;1999.90;;;999.90;;
13250;SDS011;6692;50.710;7.180;2023-07-02T04:12:52;1999.90;;;999.90;;
13250;SDS011;6692;50.710;7.180;2023-07-02T04:14:53;1999.90;;;999.90;;
13250;SDS011;6692;50.710;7.180;2023-07-02T04:16:53;1999.90;;;999.90;;
13250;SDS011;6692;50.710;7.180;2023-07-02T04:18:54;1999.90;;;999.90;;
13250;SDS011;6692;50.710;7.180;2023-07-02T04:20:55;1999.90;;;999.90;;
13250;SDS011;6692;50.710;7.180;2023-07-02T04:22:55;1999.90;;;999.90;;
13250;SDS011;6692;50.710;7.180;2023-07-02T04:24:56;1999.90;;;999.90;;
13250;SDS011;6692;50.710;7.180;2023-07-02T04:26:57;1999.90;;;999.90;;
13250;SDS011;6692;50.710;7.180;2023-07-02T04:28:58;1999.90;;;999.90;;
13250;SDS011;6692;50.710;7.180;2023-07-02T04:30:59;1999.90;;;999.90;;
13250;SDS011;6692;50.710;7.180;2023-07-02T04:33:00;1999.90;;;999.90;;
13250;SDS011;6692;50.710;7.180;2023-07-02T04:35:00;1999.90;;;999.90;;
13250;SDS011;6692;50.710;7.180;2023-07-02T04:37:01;1999.90;;;999.90;;
13250;SDS011;6692;50.710;7.180;2023-07-02T04:39:02;1999.90;;;999.90;;
13250;SDS011;6692;50.710;7.180;2023-07-02T04:41:03;1999.90;;;999.90;;
13250;SDS011;6692;50.710;7.180;2023-07-02T04:43:03;1999.90;;;999.90;;
13250;SDS011;6692;50.710;7.180;2023-07-02T04:45:04;1999.90;;;999.90;;
13250;SDS011;6692;50.710;7.180;2023-07-02T04:47:06;1999.90;;;999.90;;
13250;SDS011;6692;50.710;7.180;2023-07-02T04:49:07;1999.90;;;999.90;;
13250;SDS011;6692;50.710;7.180;2023-07-02T04:51:07;1999.90;;;999.90;;
13250;SDS011;6692;50.710;7.180;2023-07-02T04:53:08;1999.90;;;999.90;;
13250;SDS011;6692;50.710;7.180;2023-07-02T04:55:09;1999.90;;;999.90;;
13250;SDS011;6692;50.710;7.180;2023-07-02T04:57:10;1999.90;;;999.90;;
13250;SDS011;6692;50.710;7.180;2023-07-02T04:59:11;1999.90;;;999.90;;
13250;SDS011;6692;50.710;7.180;2023-07-02T05:01:11;1999.90;;;999.90;;
13250;SDS011;6692;50.710;7.180;2023-07-02T05:03:13;1999.90;;;999.90;;
13250;SDS011;6692;50.710;7.180;2023-07-02T05:05:14;1999.90;;;999.90;;
13250;SDS011;6692;50.710;7.180;2023-07-02T05:07:16;1999.90;;;999.90;;
13250;SDS011;6692;50.710;7.180;2023-07-02T05:09:17;1999.90;;;999.90;;
13250;SDS011;6692;50.710;7.180;2023-07-02T05:11:17;1999.90;;;999.90;;
13250;SDS011;6692;50.710;7.180;2023-07-02T05:13:19;1999.90;;;999.90;;
13250;SDS011;6692;50.710;7.180;2023-07-02T05:15:19;1999.90;;;999.90;;
13250;SDS011;6692;50.710;7.180;2023-07-02T05:17:20;1999.90;;;999.90;;
13250;SDS011;6692;50.710;7.180;2023-07-02T05:19:21;1999.90;;;999.90;;
13250;SDS011;6692;50.710;7.180;2023-07-02T05:21:22;1999.90;;;999.90;;
13250;SDS011;6692;50.710;7.180;2023-07-02T05:23:23;1999.90;;;999.90;;
13250;SDS011;6692;50.710;7.180;2023-07-02T05:25:23;1999.90;;;999.90;;
13250;SDS011;6692;50.710;7.180;2023-07-02T05:27:24;1999.90;;;999.90;;
13250;SDS011;6692;50.710;7.180;2023-07-02T05:29:25;1999.90;;;999.90;;
13250;SDS011;6692;50.710;7.180;2023-07-02T05:31:25;1999.90;;;999.90;;
13250;SDS011;6692;50.710;7.180;2023-07-02T05:33:26;1999.90;;;999.90;;
13250;SDS011;6692;50.710;7.180;2023-07-02T05:35:27;1999.90;;;999.90;;
13250;SDS011;6692;50.710;7.180;2023-07-02T05:37:28;1999.90;;;999.90;;
13250;SDS011;6692;50.710;7.180;2023-07-02T05:39:28;1999.90;;;999.90;;
13250;SDS011;6692;50.710;7.180;2023-07-02T05:41:29;1999.90;;;999.90;;
13250;SDS011;6692;50.710;7.180;2023-07-02T05:43:30;1999.90;;;999.90;;
13250;SDS011;6692;50.710;7.180;2023-07-02T05:45:30;1999.90;;;999.90;;
13250;SDS011;6692;50.710;7.180;2023-07-02T05:47:31;1999.90;;;999.90;;
13250;SDS011;6692;50.710;7.180;2023-07-02T05:49:32;1999.90;;;999.90;;
13250;SDS011;6692;50.710;7.180;2023-07-02T05:51:33;1999.90;;;999.90;;
13250;SDS011;6692;50.710;7.180;2023-07-02T05:53:34;1999.90;;;999.90;;
13250;SDS011;6692;50.710;7.180;2023-07-02T05:55:34;1999.90;;;999.90;;
13250;SDS011;6692;50.710;7.180;2023-07-02T05:57:36;1999.90;;;999.90;;
13250;SDS011;6692;50.710;7.180;2023-07-02T05:59:37;1999.90;;;999.90;;
13250;SDS011;6692;50.710;7.180;2023-07-02T06:01:38;1999.90;;;999.90;;
13250;SDS011;6692;50.710;7.180;2023-07-02T06:03:39;1999.90;;;999.90;;
13250;SDS011;6692;50.710;7.180;2023-07-02T06:05:39;1999.90;;;999.90;;
13250;SDS011;6692;50.710;7.180;2023-07-02T06:07:40;1999.90;;;999.90;;
13250;SDS011;6692;50.710;7.180;2023-07-02T06:09:41;1999.90;;;999.90;;
13250;SDS011;6692;50.710;7.180;2023-07-02T06:11:42;1999.90;;;999.90;;
13250;SDS011;6692;50.710;7.180;2023-07-02T06:13:43;1999.90;;;999.90;;
13250;SDS011;6692;50.710;7.180;2023-07-02T06:15:44;1999.90;;;999.90;;
13250;SDS011;6692;50.710;7.180;2023-07-02T06:17:45;1999.90;;;999.90;;
13250;SDS011;6692;50.710;7.180;2023-07-02T06:19:45;1999.90;;;999.90;;
13250;SDS011;6692;50.710;7.180;2023-07-02T06:21:47;1999.90;;;999.90;;
13250;SDS011;6692;50.710;7.180;2023-07-02T06:23:48;1999.90;;;999.90;;
13250;SDS011;6692;50.710;7.180;2023-07-02T06:25:48;1999.90;;;999.90;;
13250;SDS011;6692;50.710;7.180;2023-07-02T06:27:50;1999.90;;;999.90;;
13250;SDS011;6692;50.710;7.180;2023-07-02T06:29:50;1999.90;;;999.90;;
13250;SDS011;6692;50.710;7.180;2023-07-02T06:31:51;1999.90;;;999.90;;
13250;SDS011;6692;50.710;7.180;2023-07-02T06:33:52;1999.90;;;999.90;;
13250;SDS011;6692;50.710;7.180;2023-07-02T06:35:52;1999.90;;;999.90;;
13250;SDS011;6692;50.710;7.180;2023-07-02T06:37:54;1999.90;;;999.90;;
13250;SDS011;6692;50.710;7.180;2023-07-02T06:39:55;1999.90;;;999.90;;
13250;SDS011;6692;50.710;7.180;2023-07-02T06:41:55;1999.90;;;999.90;;
13250;SDS011;6692;50.710;7.180;2023-07-02T06:43:56;1999.90;;;999.90;;
13250;SDS011;6692;50.710;7.180;2023-07-02T06:45:57;1999.90;;;999.90;;
13250;SDS011;6692;50.710;7.180;2023-07-02T06:47:57;1999.90;;;999.90;;
13250;SDS011;6692;50.710;7.180;2023-07-02T06:49:58;1999.90;;;999.90;;
13250;SDS011;6692;50.710;7.180;2023-07-02T06:51:59;1999.90;;;999.90;;
13250;SDS011;6692;50.710;7.180;2023-07-02T06:53:59;1999.90;;;999.90;;
13250;SDS011;6692;50.710;7.180;2023-07-02T06:56:00;1999.90;;;999.90;;
13250;SDS011;6692;50.710;7.180;2023-07-02T06:58:01;1999.90;;;999.90;;
13250;SDS011;6692;50.710;7.180;2023-07-02T07:00:02;1999.90;;;999.90;;
13250;SDS011;6692;50.710;7.180;2023-07-02T07:02:04;1999.90;;;999.90;;
13250;SDS011;6692;50.710;7.180;2023-07-02T07:04:05;1999.90;;;999.90;;
13250;SDS011;6692;50.710;7.180;2023-07-02T07:06:06;1999.90;;;999.90;;
13250;SDS011;6692;50.710;7.180;2023-07-02T07:08:07;1999.90;;;999.90;;
13250;SDS011;6692;50.710;7.180;2023-07-02T07:10:08;1999.90;;;999.90;;
13250;SDS011;6692;50.710;7.180;2023-07-02T07:12:09;1999.90;;;999.90;;
13250;SDS011;6692;50.710;7.180;2023-07-02T07:14:10;1999.90;;;999.90;;
13250;SDS011;6692;50.710;7.180;2023-07-02T07:16:11;1999.90;;;999.90;;
13250;SDS011;6692;50.710;7.180;2023-07-02T07:18:11;1999.90;;;999.90;;
13250;SDS011;6692;50.710;7.180;2023-07-02T07:20:13;1999.90;;;999.90;;
13250;SDS011;6692;50.710;7.180;2023-07-02T07:22:13;1999.90;;;999.90;;
13250;SDS011;6692;50.710;7.180;2023-07-02T07:24:14;1999.90;;;999.90;;
13250;SDS011;6692;50.710;7.180;2023-07-02T07:26:15;1999.90;;;999.90;;
13250;SDS011;6692;50.710;7.180;2023-07-02T07:28:16;1999.90;;;999.90;;
13250;SDS011;6692;50.710;7.180;2023-07-02T07:30:18;1999.90;;;999.90;;
13250;SDS011;6692;50.710;7.180;2023-07-02T07:32:20;1999.90;;;999.90;;
13250;SDS011;6692;50.710;7.180;2023-07-02T07:34:20;1999.90;;;999.90;;
13250;SDS011;6692;50.710;7.180;2023-07-02T07:36:20;1999.90;;;999.90;;
13250;SDS011;6692;50.710;7.180;2023-07-02T07:38:21;1999.90;;;999.90;;
13250;SDS011;6692;50.710;7.180;2023-07-02T07:40:23;1999.90;;;999.90;;
13250;SDS011;6692;50.710;7.180;2023-07-02T07:42:23;1999.90;;;999.90;;
13250;SDS011;6692;50.710;7.180;2023-07-02T07:44:25;1999.90;;;999.90;;
13250;SDS011;6692;50.710;7.180;2023-07-02T07:46:26;1999.90;;;999.90;;
13250;SDS011;6692;50.710;7.180;2023-07-02T07:48:27;1999.90;;;999.90;;
13250;SDS011;6692;50.710;7.180;2023-07-02T07:50:28;1999.90;;;999.90;;
13250;SDS011;6692;50.710;7.180;2023-07-02T07:52:29;1999.90;;;999.90;;
13250;SDS011;6692;50.710;7.180;2023-07-02T07:54:30;1999.90;;;999.90;;
13250;SDS011;6692;50.710;7.180;2023-07-02T07:56:30;1999.90;;;999.90;;
13250;SDS011;6692;50.710;7.180;2023-07-02T07:58:32;1999.90;;;999.90;;
13250;SDS011;6692;50.710;7.180;2023-07-02T08:00:32;1999.90;;;999.90;;
13250;SDS011;6692;50.710;7.180;2023-07-02T08:02:33;1999.90;;;999.90;;
13250;SDS011;6692;50.710;7.180;2023-07-02T08:04:35;1999.90;;;999.90;;
13250;SDS011;6692;50.710;7.180;2023-07-02T08:06:35;1999.90;;;999.90;;
13250;SDS011;6692;50.710;7.180;2023-07-02T08:08:36;1999.90;;;999.90;;
13250;SDS011;6692;50.710;7.180;2023-07-02T08:10:37;1999.90;;;999.90;;
13250;SDS011;6692;50.710;7.180;2023-07-02T08:12:38;1999.90;;;999.90;;
13250;SDS011;6692;50.710;7.180;2023-07-02T08:14:39;1999.90;;;999.90;;
13250;SDS011;6692;50.710;7.180;2023-07-02T08:16:40;1999.90;;;999.90;;
13250;SDS011;6692;50.710;7.180;2023-07-02T08:18:41;1999.90;;;999.90;;
13250;SDS011;6692;50.710;7.180;2023-07-02T08:20:42;1999.90;;;999.90;;
13250;SDS011;6692;50.710;7.180;2023-07-02T08:22:42;1999.90;;;999.90;;
13250;SDS011;6692;50.710;7.180;2023-07-02T08:24:44;1999.90;;;999.90;;
13250;SDS011;6692;50.710;7.180;2023-07-02T08:26:44;1999.90;;;999.90;;
13250;SDS011;6692;50.710;7.180;2023-07-02T08:28:45;1999.90;;;999.90;;
13250;SDS011;6692;50.710;7.180;2023-07-02T08:30:46;1999.90;;;999.90;;
13250;SDS011;6692;50.710;7.180;2023-07-02T08:32:47;1999.90;;;999.90;;
13250;SDS011;6692;50.710;7.180;2023-07-02T08:34:49;1999.90;;;999.90;;
13250;SDS011;6692;50.710;7.180;2023-07-02T08:36:49;1999.90;;;999.90;;
13250;SDS011;6692;50.710;7.180;2023-07-02T08:38:50;1999.90;;;999.90;;
13250;SDS011;6692;50.710;7.180;2023-07-02T08:40:51;1999.90;;;999.90;;
13250;SDS011;6692;50.710;7.180;2023-07-02T08:42:52;1999.90;;;999.90;;
13250;SDS011;6692;50.710;7.180;2023-07-02T08:44:53;1999.90;;;999.90;;
13250;SDS011;6692;50.710;7.180;2023-07-02T08:46:53;1999.90;;;999.90;;
13250;SDS011;6692;50.710;7.180;2023-07-02T08:48:55;1999.90;;;999.90;;
13250;SDS011;6692;50.710;7.180;2023-07-02T08:50:56;1999.90;;;999.90;;
13250;SDS011;6692;50.710;7.180;2023-07-02T08:52:57;1999.90;;;999.90;;
13250;SDS011;6692;50.710;7.180;2023-07-02T08:54:58;1999.90;;;999.90;;
13250;SDS011;6692;50.710;7.180;2023-07-02T08:56:59;1999.90;;;999.90;;
13250;SDS011;6692;50.710;7.180;2023-07-02T08:59:00;1999.90;;;999.90;;
13250;SDS011;6692;50.710;7.180;2023-07-02T09:01:04;1999.90;;;999.90;;
13250;SDS011;6692;50.710;7.180;2023-07-02T09:03:11;1999.90;;;999.90;;
13250;SDS011;6692;50.710;7.180;2023-07-02T09:05:12;1999.90;;;999.90;;
13250;SDS011;6692;50.710;7.180;2023-07-02T09:07:13;1999.90;;;999.90;;
13250;SDS011;6692;50.710;7.180;2023-07-02T09:09:14;1999.90;;;999.90;;
13250;SDS011;6692;50.710;7.180;2023-07-02T09:11:15;1999.90;;;999.90;;
13250;SDS011;6692;50.710;7.180;2023-07-02T09:13:15;1999.90;;;999.90;;
13250;SDS011;6692;50.710;7.180;2023-07-02T09:15:17;1999.90;;;999.90;;
13250;SDS011;6692;50.710;7.180;2023-07-02T09:17:17;1999.90;;;999.90;;
13250;SDS011;6692;50.710;7.180;2023-07-02T09:19:18;1999.90;;;999.90;;
13250;SDS011;6692;50.710;7.180;2023-07-02T09:21:19;1999.90;;;999.90;;
13250;SDS011;6692;50.710;7.180;2023-07-02T09:23:20;1999.90;;;999.90;;
13250;SDS011;6692;50.710;7.180;2023-07-02T09:25:20;1999.90;;;999.90;;
13250;SDS011;6692;50.710;7.180;2023-07-02T09:27:21;1999.90;;;999.90;;
13250;SDS011;6692;50.710;7.180;2023-07-02T09:29:23;1999.90;;;999.90;;
13250;SDS011;6692;50.710;7.180;2023-07-02T09:31:26;1999.90;;;999.90;;
13250;SDS011;6692;50.710;7.180;2023-07-02T09:33:27;1999.90;;;999.90;;
13250;SDS011;6692;50.710;7.180;2023-07-02T09:35:27;1999.90;;;999.90;;
13250;SDS011;6692;50.710;7.180;2023-07-02T09:37:28;1999.90;;;999.90;;
13250;SDS011;6692;50.710;7.180;2023-07-02T09:39:30;1999.90;;;999.90;;
13250;SDS011;6692;50.710;7.180;2023-07-02T09:41:30;1999.90;;;999.90;;
13250;SDS011;6692;50.710;7.180;2023-07-02T09:43:31;1999.90;;;999.90;;
13250;SDS011;6692;50.710;7.180;2023-07-02T09:45:33;1999.90;;;999.90;;
13250;SDS011;6692;50.710;7.180;2023-07-02T09:47:35;1999.90;;;999.90;;
13250;SDS011;6692;50.710;7.180;2023-07-02T09:49:35;1999.90;;;999.90;;
13250;SDS011;6692;50.710;7.180;2023-07-02T09:51:35;1999.90;;;999.90;;
13250;SDS011;6692;50.710;7.180;2023-07-02T09:53:36;310.23;;;297.00;;
13250;SDS011;6692;50.710;7.180;2023-07-02T09:55:37;1999.90;;;999.90;;
13250;SDS011;6692;50.710;7.180;2023-07-02T09:57:37;257.20;;;246.73;;
13250;SDS011;6692;50.710;7.180;2023-07-02T09:59:38;223.53;;;214.13;;
13250;SDS011;6692;50.710;7.180;2023-07-02T10:01:39;1999.90;;;999.90;;
13250;SDS011;6692;50.710;7.180;2023-07-02T10:03:40;218.67;;;209.10;;
13250;SDS011;6692;50.710;7.180;2023-07-02T10:05:40;884.30;;;542.03;;
13250;SDS011;6692;50.710;7.180;2023-07-02T10:07:41;294.37;;;282.57;;
13250;SDS011;6692;50.710;7.180;2023-07-02T10:09:43;1999.90;;;999.90;;
13250;SDS011;6692;50.710;7.180;2023-07-02T10:11:43;1999.90;;;999.90;;
13250;SDS011;6692;50.710;7.180;2023-07-02T10:13:44;1999.90;;;999.90;;
13250;SDS011;6692;50.710;7.180;2023-07-02T10:15:45;1999.90;;;999.90;;
13250;SDS011;6692;50.710;7.180;2023-07-02T10:17:54;1999.90;;;999.90;;
13250;SDS011;6692;50.710;7.180;2023-07-02T10:19:50;1999.90;;;999.90;;
13250;SDS011;6692;50.710;7.180;2023-07-02T10:26:14;253.17;;;242.87;;
13250;SDS011;6692;50.710;7.180;2023-07-02T10:28:17;1999.90;;;999.90;;
13250;SDS011;6692;50.710;7.180;2023-07-02T10:30:29;271.63;;;260.70;;
13250;SDS011;6692;50.710;7.180;2023-07-02T10:32:26;1999.90;;;999.90;;
13250;SDS011;6692;50.710;7.180;2023-07-02T10:34:30;910.50;;;566.90;;
13250;SDS011;6692;50.710;7.180;2023-07-02T10:36:30;226.70;;;217.10;;
13250;SDS011;6692;50.710;7.180;2023-07-02T10:38:31;226.83;;;217.17;;
13250;SDS011;6692;50.710;7.180;2023-07-02T10:40:32;277.57;;;265.70;;
13250;SDS011;6692;50.710;7.180;2023-07-02T10:42:32;239.63;;;229.77;;
13250;SDS011;6692;50.710;7.180;2023-07-02T10:44:33;134.97;;;128.27;;
13250;SDS011;6692;50.710;7.180;2023-07-02T10:46:34;197.90;;;189.37;;
13250;SDS011;6692;50.710;7.180;2023-07-02T10:48:35;188.20;;;179.93;;
13250;SDS011;6692;50.710;7.180;2023-07-02T10:50:36;283.67;;;271.97;;
13250;SDS011;6692;50.710;7.180;2023-07-02T10:52:37;214.37;;;205.57;;
13250;SDS011;6692;50.710;7.180;2023-07-02T10:54:43;152.80;;;145.77;;
13250;SDS011;6692;50.710;7.180;2023-07-02T10:56:44;263.80;;;252.87;;
13250;SDS011;6692;50.710;7.180;2023-07-02T10:58:44;138.70;;;132.43;;
13250;SDS011;6692;50.710;7.180;2023-07-02T11:00:46;229.53;;;220.10;;
13250;SDS011;6692;50.710;7.180;2023-07-02T11:02:46;149.60;;;142.90;;
13250;SDS011;6692;50.710;7.180;2023-07-02T11:04:47;133.33;;;127.50;;
13250;SDS011;6692;50.710;7.180;2023-07-02T11:06:47;140.00;;;133.60;;
13250;SDS011;6692;50.710;7.180;2023-07-02T11:08:49;142.30;;;136.07;;
13250;SDS011;6692;50.710;7.180;2023-07-02T11:10:49;140.50;;;134.30;;
13250;SDS011;6692;50.710;7.180;2023-07-02T11:12:50;140.40;;;134.00;;
13250;SDS011;6692;50.710;7.180;2023-07-02T11:14:51;152.23;;;145.43;;
13250;SDS011;6692;50.710;7.180;2023-07-02T11:16:54;157.87;;;151.17;;
13250;SDS011;6692;50.710;7.180;2023-07-02T11:21:09;136.17;;;130.10;;
13250;SDS011;6692;50.710;7.180;2023-07-02T11:23:16;95.73;;;90.67;;
13250;SDS011;6692;50.710;7.180;2023-07-02T11:25:20;115.27;;;109.77;;
13250;SDS011;6692;50.710;7.180;2023-07-02T11:27:21;110.07;;;104.67;;
13250;SDS011;6692;50.710;7.180;2023-07-02T11:29:22;111.97;;;106.57;;
13250;SDS011;6692;50.710;7.180;2023-07-02T11:31:24;118.63;;;112.83;;
13250;SDS011;6692;50.710;7.180;2023-07-02T11:35:34;123.70;;;117.90;;
13250;SDS011;6692;50.710;7.180;2023-07-02T11:37:34;99.93;;;94.87;;